Time;durP1;ratioP1;P1;durP2;ratioP2;P2;SDS_P1;SDS_P2;PMS_P1;PMS_P2;Temp;Humidity;BMP_temperature;BMP_pressure;BME280_temperature;BME280_humidity;BME280_pressure;Samples;Min_cycle;Max_cycle;Signal;HPM_P1;HPM_P2
2021/08/17 00:00:13;;;;;;;8.07;5.53;;;15.70;99.90;;;;;;5023085;28;20051;-83
2021/08/17 00:02:41;;;;;;;10.68;5.32;;;15.80;99.90;;;;;;5043354;28;20045;-83
2021/08/17 00:05:13;;;;;;;;;;;15.70;99.90;;;;;;5041374;28;20041;-81
2021/08/17 00:07:42;;;;;;;8.80;5.55;;;15.70;99.90;;;;;;5036224;28;20067;-83
2021/08/17 00:10:10;;;;;;;8.27;5.63;;;15.70;99.90;;;;;;5035526;28;20124;-83
2021/08/17 00:12:39;;;;;;;7.20;5.93;;;15.70;99.90;;;;;;5052091;28;20092;-83
2021/08/17 00:15:09;;;;;;;8.80;5.47;;;15.70;99.90;;;;;;5059645;27;20070;-82
2021/08/17 00:17:40;;;;;;;10.85;5.68;;;15.70;99.90;;;;;;5075809;27;20424;-82
2021/08/17 00:20:18;;;;;;;9.98;6.03;;;15.70;99.90;;;;;;5100787;27;20039;-81
2021/08/17 00:22:46;;;;;;;9.70;5.78;;;15.70;99.90;;;;;;5102824;27;20039;-83
2021/08/17 00:25:16;;;;;;;8.80;5.55;;;15.70;99.90;;;;;;5116572;27;20047;-81
2021/08/17 00:27:46;;;;;;;13.18;5.90;;;15.70;99.90;;;;;;5117553;27;20047;-83
2021/08/17 00:30:16;;;;;;;9.57;6.55;;;15.70;99.90;;;;;;5103866;27;20043;-83
2021/08/17 00:32:57;;;;;;;8.07;5.22;;;15.70;99.90;;;;;;5099437;27;20379;-81
2021/08/17 00:35:45;;;;;;;12.45;5.53;;;15.70;99.90;;;;;;5099358;27;20424;-83
2021/08/17 00:38:17;;;;;;;10.40;6.05;;;15.70;99.90;;;;;;5116380;27;20116;-83
2021/08/17 00:40:49;;;;;;;10.98;6.35;;;15.70;99.90;;;;;;5109478;27;20043;-82
2021/08/17 00:43:23;;;;;;;10.93;6.05;;;15.70;99.90;;;;;;5107002;27;20131;-83
2021/08/17 00:45:54;;;;;;;14.13;6.57;;;15.70;99.90;;;;;;5103016;27;20051;-82
2021/08/17 00:48:26;;;;;;;11.15;7.30;;;15.60;99.90;;;;;;5115913;27;20111;-83
2021/08/17 00:51:13;;;;;;;12.15;7.30;;;15.60;99.90;;;;;;5116942;27;20050;-83
2021/08/17 00:53:45;;;;;;;12.02;7.70;;;15.60;99.90;;;;;;5095151;27;20043;-83
2021/08/17 00:56:17;;;;;;;14.32;7.03;;;15.60;99.90;;;;;;5115405;27;20421;-83
2021/08/17 00:58:46;;;;;;;13.63;7.53;;;15.60;99.90;;;;;;5107387;27;20140;-83
2021/08/17 01:01:19;;;;;;;14.98;7.60;;;15.60;99.90;;;;;;5095897;27;20051;-82
2021/08/17 01:03:50;;;;;;;13.88;7.57;;;15.60;99.90;;;;;;5115221;27;20572;-83
2021/08/17 01:06:22;;;;;;;10.00;6.63;;;15.60;99.90;;;;;;5098618;27;20047;-83
2021/08/17 01:08:52;;;;;;;11.63;6.97;;;15.60;99.90;;;;;;5116477;27;20467;-81
2021/08/17 01:11:20;;;;;;;13.18;7.57;;;15.60;99.90;;;;;;5080839;27;20131;-81
2021/08/17 01:14:29;;;;;;;11.68;7.50;;;15.60;99.90;;;;;;5100218;27;20039;-83
2021/08/17 01:17:00;;;;;;;12.57;7.22;;;15.60;99.90;;;;;;5086033;27;20047;-83
2021/08/17 01:23:33;;;;;;;12.48;7.35;;;15.60;99.90;;;;;;4953204;28;20497;-80
2021/08/17 01:26:10;;;;;;;11.52;7.50;;;15.60;99.90;;;;;;4964442;28;20047;-83
2021/08/17 01:28:37;;;;;;;14.93;8.02;;;15.60;99.90;;;;;;4957095;28;20050;-83
2021/08/17 01:31:12;;;;;;;15.45;7.80;;;15.60;99.90;;;;;;4954278;28;20147;-83
2021/08/17 01:34:02;;;;;;;;;;;;;;;;;;;;;
2021/08/17 01:36:54;;;;;;;;;;;;;;;;;;;;;
2021/08/17 01:39:48;;;;;;;;;;;;;;;;;;;;;
2021/08/17 01:42:51;;;;;;;;;;;;;;;;;;;;;
2021/08/17 01:45:47;;;;;;;13.07;8.10;;;15.60;99.90;;;;;;4968688;28;20058;-83
2021/08/17 01:48:51;;;;;;;;;;;;;;;;;;;;;
2021/08/17 01:51:34;;;;;;;;;;;;;;;;;;;;;
2021/08/17 01:54:39;;;;;;;;;;;;;;;;;;;;;
2021/08/17 01:57:35;;;;;;;16.02;8.05;;;15.60;99.90;;;;;;4923199;28;20594;-83
2021/08/17 02:00:17;;;;;;;11.98;7.72;;;15.60;99.90;;;;;;5053883;28;20125;-83
2021/08/17 02:03:33;;;;;;;12.95;8.23;;;15.60;99.90;;;;;;5032992;28;20110;-83
2021/08/17 02:06:23;;;;;;;10.38;7.32;;;15.60;99.90;;;;;;4991900;28;20070;-82
2021/08/17 02:09:01;;;;;;;16.77;8.45;;;15.60;99.90;;;;;;5052357;28;20520;-83
2021/08/17 02:11:40;;;;;;;11.27;7.55;;;15.60;99.90;;;;;;5027292;28;20056;-82
2021/08/17 02:14:23;;;;;;;13.50;8.65;;;15.60;99.90;;;;;;4987306;28;20038;-83
2021/08/17 02:17:22;;;;;;;;;;;;;;;;;;;;;
2021/08/17 02:20:09;;;;;;;12.73;8.13;;;15.60;99.90;;;;;;5000866;28;20037;-83
2021/08/17 02:22:52;;;;;;;12.60;7.75;;;15.60;99.90;;;;;;5002632;28;20049;-81
2021/08/17 02:25:42;;;;;;;15.30;8.70;;;15.60;99.90;;;;;;5082796;28;20098;-81
2021/08/17 02:28:09;;;;;;;14.27;7.82;;;15.60;99.90;;;;;;5084098;27;20043;-81
2021/08/17 02:30:37;;;;;;;12.75;8.07;;;15.60;99.90;;;;;;5101566;27;20047;-82
2021/08/17 02:33:14;;;;;;;12.77;8.32;;;15.60;99.90;;;;;;5107604;27;20044;-81
2021/08/17 02:35:46;;;;;;;17.75;8.93;;;15.60;99.90;;;;;;5076970;28;20096;-83
2021/08/17 02:38:16;;;;;;;16.70;8.50;;;15.60;99.90;;;;;;5090525;28;20051;-82
2021/08/17 02:40:45;;;;;;;13.38;7.93;;;15.60;99.90;;;;;;5083399;28;20118;-81
2021/08/17 02:43:24;;;;;;;17.08;8.75;;;15.60;99.90;;;;;;5080882;27;20501;-83
2021/08/17 02:46:19;;;;;;;12.13;8.70;;;15.60;99.90;;;;;;5071661;28;20042;-80
2021/08/17 02:48:51;;;;;;;13.95;8.98;;;15.50;99.90;;;;;;5092667;28;20429;-82
2021/08/17 02:51:29;;;;;;;14.88;8.40;;;15.50;99.90;;;;;;5083192;27;20055;-82
2021/08/17 02:53:58;;;;;;;16.63;9.02;;;15.60;99.90;;;;;;5096534;28;20039;-83
2021/08/17 02:56:29;;;;;;;13.75;8.55;;;15.60;99.90;;;;;;5074703;28;20044;-82
2021/08/17 02:58:58;;;;;;;16.20;8.90;;;15.50;99.90;;;;;;5111593;27;20101;-82
2021/08/17 03:01:37;;;;;;;13.85;8.25;;;15.60;99.90;;;;;;5075499;28;20108;-83
2021/08/17 03:04:09;;;;;;;14.82;7.95;;;15.60;99.90;;;;;;5123864;27;20048;-82
2021/08/17 03:06:36;;;;;;;14.90;8.60;;;15.60;99.90;;;;;;5092973;28;20071;-83
2021/08/17 03:09:14;;;;;;;11.95;8.45;;;15.60;99.90;;;;;;5106237;27;20480;-82
2021/08/17 03:11:54;;;;;;;13.15;8.70;;;15.60;99.90;;;;;;5086583;28;20039;-81
2021/08/17 03:14:25;;;;;;;13.05;8.73;;;15.60;99.90;;;;;;5110663;27;20043;-82
2021/08/17 03:16:52;;;;;;;12.35;8.75;;;15.60;99.90;;;;;;5092463;28;20051;-82
2021/08/17 03:19:24;;;;;;;13.48;8.27;;;15.60;99.90;;;;;;5091100;27;20084;-82
2021/08/17 03:21:51;;;;;;;12.70;8.43;;;15.50;99.90;;;;;;5075812;28;20053;-82
2021/08/17 03:24:21;;;;;;;17.10;8.82;;;15.50;99.90;;;;;;5091477;27;20087;-82
2021/08/17 03:26:58;;;;;;;15.65;9.25;;;15.50;99.90;;;;;;5083355;28;20035;-83
2021/08/17 03:29:39;;;;;;;;;;;;;;;;;;;;;
2021/08/17 03:32:09;;;;;;;14.40;8.73;;;15.50;99.90;;;;;;5109504;27;20047;-80
2021/08/17 03:34:50;;;;;;;16.90;8.90;;;15.50;99.90;;;;;;5097596;28;20055;-81
2021/08/17 03:37:23;;;;;;;14.38;9.05;;;15.50;99.90;;;;;;5080432;27;20047;-83
2021/08/17 03:39:50;;;;;;;15.98;8.88;;;15.60;99.90;;;;;;5088149;28;20122;-83
2021/08/17 03:42:29;;;;;;;;;;;;;;;;;;;;;
2021/08/17 03:45:22;;;;;;;;;;;;;;;;;;;;;
2021/08/17 03:48:10;;;;;;;;;;;;;;;;;;;;;
2021/08/17 03:50:41;;;;;;;12.85;9.23;;;15.50;99.90;;;;;;5098647;28;20052;-82
2021/08/17 03:53:15;;;;;;;14.60;10.07;;;15.50;99.90;;;;;;5092460;28;20122;-83
2021/08/17 03:55:43;;;;;;;14.55;9.40;;;15.50;99.90;;;;;;5092986;28;20388;-82
2021/08/17 03:58:14;;;;;;;16.05;9.63;;;15.50;99.90;;;;;;5064741;28;20051;-83
2021/08/17 04:00:53;;;;;;;;;;;;;;;;;;;;;
2021/08/17 04:03:25;;;;;;;17.40;9.70;;;15.50;99.90;;;;;;5105056;28;20100;-83
2021/08/17 04:05:53;;;;;;;13.63;8.95;;;15.50;99.90;;;;;;5093131;28;20054;-83
2021/08/17 04:08:24;;;;;;;16.30;9.45;;;15.50;99.90;;;;;;5064212;28;20090;-80
2021/08/17 04:10:51;;;;;;;15.20;9.65;;;15.50;99.90;;;;;;5079460;28;20040;-82
2021/08/17 04:13:21;;;;;;;13.65;9.02;;;15.50;99.90;;;;;;5064005;28;20082;-83
2021/08/17 04:15:50;;;;;;;14.88;9.25;;;15.50;99.90;;;;;;5056828;28;20070;-84
2021/08/17 04:18:19;;;;;;;13.73;9.10;;;15.50;99.90;;;;;;5081456;28;20437;-83
2021/08/17 04:20:58;;;;;;;14.65;9.88;;;15.50;99.90;;;;;;5093823;28;20498;-82
2021/08/17 04:23:29;;;;;;;16.85;9.85;;;15.50;99.90;;;;;;5092487;28;20055;-83
2021/08/17 04:26:17;;;;;;;14.15;9.05;;;15.40;99.90;;;;;;5093813;28;20365;-80
2021/08/17 04:28:49;;;;;;;19.90;9.90;;;15.40;99.90;;;;;;5093094;28;20046;-83
2021/08/17 04:31:36;;;;;;;17.60;9.93;;;15.40;99.90;;;;;;5032625;28;20525;-84
2021/08/17 04:34:26;;;;;;;18.98;9.68;;;15.40;99.90;;;;;;5064062;28;20118;-82
2021/08/17 04:37:41;;;;;;;16.48;9.60;;;15.40;99.90;;;;;;5022526;28;20049;-83
2021/08/17 04:40:37;;;;;;;14.50;9.82;;;15.40;99.90;;;;;;5019973;28;20046;-83
2021/08/17 04:43:29;;;;;;;;;;;;;;;;;;;;;
2021/08/17 04:46:23;;;;;;;14.45;9.50;;;15.30;99.90;;;;;;4897563;29;20501;-83
2021/08/17 04:49:09;;;;;;;;;;;;;;;;;;;;;
2021/08/17 04:51:51;;;;;;;17.17;9.60;;;15.40;99.90;;;;;;4894908;29;20044;-81
2021/08/17 04:54:43;;;;;;;;;;;;;;;;;;;;;
2021/08/17 04:57:15;;;;;;;17.33;9.82;;;15.40;99.90;;;;;;4942644;28;20055;-83
2021/08/17 04:59:54;;;;;;;13.70;8.93;;;15.40;99.90;;;;;;4928005;28;20488;-83
2021/08/17 05:02:36;;;;;;;14.50;9.52;;;15.30;99.90;;;;;;4931945;28;20092;-83
2021/08/17 05:05:12;;;;;;;14.98;9.32;;;15.30;99.90;;;;;;4959253;28;20181;-84
2021/08/17 05:07:46;;;;;;;17.75;9.60;;;15.40;99.90;;;;;;4991036;28;20043;-82
2021/08/17 05:10:16;;;;;;;13.50;9.10;;;15.30;99.90;;;;;;4966439;28;20053;-83
2021/08/17 05:13:07;;;;;;;;;;;;;;;;;;;;;
2021/08/17 05:15:42;;;;;;;15.13;8.73;;;15.30;99.90;;;;;;4996122;28;20587;-83
2021/08/17 05:18:15;;;;;;;14.65;9.40;;;15.30;99.90;;;;;;5091275;27;20051;-81
2021/08/17 05:21:22;;;;;;;12.25;9.07;;;15.40;99.90;;;;;;5011742;28;20045;-80
2021/08/17 05:27:37;;;;;;;;;;;;;;;;;;;;;
2021/08/17 05:30:36;;;;;;;10.82;8.50;;;15.40;99.90;;;;;;4932369;28;20047;-83
2021/08/17 05:33:30;;;;;;;14.90;10.05;;;15.40;99.90;;;;;;4953253;28;20046;-84
2021/08/17 05:36:53;;;;;;;17.98;8.93;;;15.40;99.90;;;;;;4862824;29;20402;-81
2021/08/17 05:40:29;;;;;;;17.00;8.77;;;15.30;99.90;;;;;;4816291;29;20061;-84
2021/08/17 05:43:28;;;;;;;14.07;8.77;;;15.30;99.90;;;;;;4819752;29;20402;-83
2021/08/17 05:46:40;;;;;;;11.83;9.03;;;15.30;99.90;;;;;;4800211;29;20050;-82
2021/08/17 05:49:42;;;;;;;;;;;;;;;;;;;;;
2021/08/17 05:52:33;;;;;;;14.02;9.68;;;15.30;99.90;;;;;;4766882;29;20099;-81
2021/08/17 05:54:59;;;;;;;13.57;9.10;;;15.30;99.90;;;;;;4812019;29;20658;-83
2021/08/17 05:58:03;;;;;;;13.27;8.65;;;15.30;99.90;;;;;;4864589;29;20127;-81
2021/08/17 06:00:52;;;;;;;13.05;9.07;;;15.30;99.90;;;;;;4893948;28;20059;-83
2021/08/17 06:03:54;;;;;;;;;;;;;;;;;;;;;
2021/08/17 06:06:54;;;;;;;;;;;;;;;;;;;;;
2021/08/17 06:09:38;;;;;;;13.15;8.20;;;15.40;99.90;;;;;;5062550;28;20047;-82
2021/08/17 06:12:19;;;;;;;17.40;8.50;;;15.40;99.90;;;;;;5058098;28;20055;-80
2021/08/17 06:15:21;;;;;;;15.25;9.05;;;15.40;99.90;;;;;;4992414;28;20060;-84
2021/08/17 06:18:25;;;;;;;10.55;7.60;;;15.50;99.90;;;;;;5017435;28;20075;-83
2021/08/17 06:21:36;;;;;;;;;;;;;;;;;;;;;
2021/08/17 06:24:19;;;;;;;12.38;7.57;;;15.50;99.90;;;;;;4971846;28;20604;-83
2021/08/17 06:26:51;;;;;;;12.02;7.78;;;15.60;99.90;;;;;;5019966;28;20044;-83
2021/08/17 06:29:42;;;;;;;9.77;7.28;;;15.60;99.90;;;;;;4916012;28;20047;-83
2021/08/17 06:33:17;;;;;;;9.48;7.18;;;15.70;99.90;;;;;;4960960;28;20053;-83
2021/08/17 06:36:05;;;;;;;11.73;7.93;;;15.70;99.90;;;;;;4968202;28;20054;-83
2021/08/17 06:38:54;;;;;;;11.93;7.18;;;15.70;99.90;;;;;;4960121;28;20058;-84
2021/08/17 06:41:42;;;;;;;10.30;6.97;;;15.70;99.90;;;;;;4968004;28;20520;-83
2021/08/17 06:45:13;;;;;;;;;;;;;;;;;;;;;
2021/08/17 06:48:06;;;;;;;;;;;;;;;;;;;;;
2021/08/17 06:51:10;;;;;;;10.55;7.00;;;15.90;99.90;;;;;;4916406;28;20058;-83
2021/08/17 06:54:31;;;;;;;10.05;6.65;;;15.90;99.90;;;;;;4846659;29;20044;-81
2021/08/17 06:57:37;;;;;;;11.32;6.25;;;16.00;99.90;;;;;;4850975;29;20052;-83
2021/08/17 07:00:22;;;;;;;9.65;5.60;;;16.00;99.90;;;;;;4889216;29;20048;-83
2021/08/17 07:03:07;;;;;;;;;;;;;;;;;;;;;
2021/08/17 07:05:57;;;;;;;9.32;5.53;;;16.10;99.90;;;;;;4954759;28;20053;-81
2021/08/17 07:08:38;;;;;;;8.53;5.33;;;16.20;99.90;;;;;;4922964;28;20150;-81
2021/08/17 07:11:24;;;;;;;8.40;5.40;;;16.20;99.90;;;;;;4965925;28;20300;-83
2021/08/17 07:13:58;;;;;;;10.52;5.07;;;16.30;99.90;;;;;;5022697;28;20036;-84
2021/08/17 07:16:51;;;;;;;7.63;4.73;;;16.30;99.90;;;;;;5000152;28;20052;-82
2021/08/17 07:19:31;;;;;;;9.68;5.10;;;16.40;99.90;;;;;;5035094;28;20051;-83
2021/08/17 07:22:20;;;;;;;7.45;4.88;;;16.40;99.90;;;;;;5064604;28;20044;-83
2021/08/17 07:24:56;;;;;;;8.23;4.97;;;16.50;99.90;;;;;;5045726;28;20049;-84
2021/08/17 07:27:41;;;;;;;10.45;5.43;;;16.50;99.90;;;;;;5054517;28;20450;-83
2021/08/17 07:30:20;;;;;;;8.20;4.95;;;16.50;99.90;;;;;;5080626;28;20075;-83
2021/08/17 07:32:55;;;;;;;7.95;5.30;;;16.60;99.90;;;;;;5085180;28;20059;-83
2021/08/17 07:39:46;;;;;;;8.77;5.87;;;16.70;99.90;;;;;;5034367;28;20044;-82
2021/08/17 07:42:52;;;;;;;;;;;;;;;;;;;;;
2021/08/17 07:46:21;;;;;;;;;;;;;;;;;;;;;
2021/08/17 07:49:55;;;;;;;;;;;;;;;;;;;;;
2021/08/17 07:52:26;;;;;;;10.57;5.10;;;17.00;99.90;;;;;;4837620;29;20057;-84
2021/08/17 07:55:55;;;;;;;10.57;5.47;;;17.00;99.90;;;;;;4804289;29;20060;-82
2021/08/17 07:58:47;;;;;;;8.52;5.65;;;17.10;99.90;;;;;;4783546;29;20057;-84
2021/08/17 08:15:22;;;;;;;8.27;4.73;;;17.20;99.90;;;;;;5332941;22;22231925;-83
2021/08/17 08:18:10;;;;;;;8.88;4.32;;;17.60;99.90;;;;;;6275318;22;20375;-84
2021/08/17 08:21:33;;;;;;;;;;;;;;;;;;;;;
2021/08/17 08:24:24;;;;;;;7.25;3.42;;;17.60;99.90;;;;;;6124771;23;20025;-83
2021/08/17 08:27:18;;;;;;;;;;;;;;;;;;;;;
2021/08/17 08:29:47;;;;;;;9.93;3.83;;;17.60;99.90;;;;;;6160346;23;19987;-83
2021/08/17 08:32:55;;;;;;;;;;;;;;;;;;;;;
2021/08/17 08:36:09;;;;;;;8.35;4.32;;;17.50;99.90;;;;;;5972473;23;20038;-83
2021/08/17 08:38:58;;;;;;;11.45;3.33;;;17.60;99.90;;;;;;6022008;23;20023;-84
2021/08/17 08:42:01;;;;;;;10.20;3.15;;;17.70;99.90;;;;;;5996849;23;20026;-82
2021/08/17 08:44:55;;;;;;;;;;;;;;;;;;;;;
2021/08/17 08:48:05;;;;;;;5.55;2.63;;;17.60;99.90;;;;;;6134195;23;20073;-84
2021/08/17 08:51:43;;;;;;;;;;;;;;;;;;;;;
2021/08/17 08:58:56;;;;;;;5.35;2.35;;;17.70;99.90;;;;;;5901459;24;20021;-83
2021/08/17 09:01:57;;;;;;;;;;;;;;;;;;;;;
2021/08/17 09:04:53;;;;;;;5.80;2.30;;;17.90;99.90;;;;;;5878681;24;20079;-84
2021/08/17 09:08:08;;;;;;;;;;;;;;;;;;;;;
2021/08/17 09:10:54;;;;;;;4.25;2.50;;;18.10;99.90;;;;;;5863955;24;20078;-83
2021/08/17 09:13:32;;;;;;;7.45;2.65;;;18.00;99.90;;;;;;5937588;23;20015;-82
2021/08/17 09:16:41;;;;;;;5.10;2.50;;;18.00;99.90;;;;;;5954273;23;20069;-83
2021/08/17 09:19:58;;;;;;;6.60;2.63;;;18.00;99.90;;;;;;6001572;23;20018;-84
2021/08/17 09:50:37;;;;;;;3.53;1.80;;;18.30;99.90;;;;;;5576522;22;13835463;-81
2021/08/17 09:53:34;;;;;;;;;;;;;;;;;;;;;
2021/08/17 09:56:58;;;;;;;4.53;2.25;;;18.40;99.90;;;;;;5957204;23;20052;-81
2021/08/17 10:02:55;;;;;;;2.55;1.75;;;18.30;99.90;;;;;;6005396;23;20020;-83
2021/08/17 10:05:36;;;;;;;2.95;1.55;;;18.30;99.90;;;;;;5976565;23;20014;-84
2021/08/17 10:09:17;;;;;;;;;;;;;;;;;;;;;
2021/08/17 10:12:26;;;;;;;3.22;1.80;;;18.30;99.90;;;;;;5836639;24;20021;-82
2021/08/17 10:15:39;;;;;;;;;;;;;;;;;;;;;
2021/08/17 10:18:48;;;;;;;;;;;;;;;;;;;;;
2021/08/17 10:21:36;;;;;;;;;;;;;;;;;;;;;
2021/08/17 10:24:40;;;;;;;;;;;;;;;;;;;;;
2021/08/17 10:27:50;;;;;;;;;;;;;;;;;;;;;
2021/08/17 10:31:18;;;;;;;;;;;;;;;;;;;;;
2021/08/17 10:34:01;;;;;;;;;;;;;;;;;;;;;
2021/08/17 10:36:56;;;;;;;2.15;0.90;;;18.70;99.90;;;;;;5834681;24;20017;-82
2021/08/17 10:39:30;;;;;;;1.67;1.10;;;18.80;99.90;;;;;;5892159;24;20018;-81
2021/08/17 10:42:28;;;;;;;2.97;1.10;;;18.70;99.90;;;;;;5855365;24;20013;-81
2021/08/17 10:45:41;;;;;;;;;;;;;;;;;;;;;
2021/08/17 10:48:58;;;;;;;;;;;;;;;;;;;;;
2021/08/17 10:55:09;;;;;;;3.70;1.25;;;18.90;99.90;;;;;;5858463;24;20031;-83
2021/08/17 10:58:04;;;;;;;;;;;;;;;;;;;;;
2021/08/17 11:01:52;;;;;;;2.15;1.10;;;18.90;99.90;;;;;;5950820;23;20033;-84
2021/08/17 11:05:11;;;;;;;3.30;1.55;;;19.00;99.90;;;;;;5883759;24;20033;-81
2021/08/17 11:08:15;;;;;;;;;;;;;;;;;;;;;
2021/08/17 11:11:50;;;;;;;;;;;;;;;;;;;;;
2021/08/17 12:30:33;;;;;;;;;;;;;;;;;;;;;
2021/08/17 12:34:18;;;;;;;4.47;1.30;;;19.30;99.90;;;;;;5838059;24;20033;-83
2021/08/17 13:00:33;;;;;;;4.43;1.30;;;18.70;99.90;;;;;;6248694;22;20444;-84
2021/08/17 13:06:39;;;;;;;;;;;;;;;;;;;;;
2021/08/17 13:09:43;;;;;;;;;;;;;;;;;;;;;
2021/08/17 13:12:38;;;;;;;;;;;;;;;;;;;;;
2021/08/17 13:15:39;;;;;;;3.47;1.17;;;19.00;99.90;;;;;;5858711;24;20047;-81
2021/08/17 13:18:27;;;;;;;3.63;1.30;;;19.00;99.90;;;;;;5871292;24;20040;-82
2021/08/17 13:21:26;;;;;;;;;;;;;;;;;;;;;
2021/08/17 13:24:47;;;;;;;4.95;1.20;;;19.00;99.90;;;;;;5839240;24;20798;-82
2021/08/17 13:27:30;;;;;;;;;;;;;;;;;;;;;
2021/08/17 13:33:10;;;;;;;1.83;1.00;;;19.00;99.90;;;;;;5904549;24;20027;-84
2021/08/17 13:35:53;;;;;;;3.55;1.25;;;18.90;99.90;;;;;;5941190;23;20080;-83
2021/08/17 13:38:51;;;;;;;3.72;1.10;;;18.80;99.90;;;;;;5989472;23;20106;-84
2021/08/17 13:41:51;;;;;;;;;;;;;;;;;;;;;
2021/08/17 13:44:51;;;;;;;;;;;;;;;;;;;;;
2021/08/17 13:51:30;;;;;;;;;;;;;;;;;;;;;
2021/08/17 14:00:22;;;;;;;;;;;;;;;;;;;;;
2021/08/17 14:03:14;;;;;;;1.83;0.93;;;19.30;99.90;;;;;;6006671;23;20015;-83
2021/08/17 14:06:01;;;;;;;3.50;0.80;;;19.30;99.90;;;;;;5948650;23;20032;-82
2021/08/17 14:08:56;;;;;;;2.42;0.77;;;19.30;99.90;;;;;;5961254;23;20015;-84
2021/08/17 14:11:24;;;;;;;2.25;0.80;;;19.30;99.90;;;;;;5826439;24;20017;-81
2021/08/17 14:14:25;;;;;;;1.73;0.65;;;19.30;99.90;;;;;;5891893;24;20407;-83
2021/08/17 14:17:26;;;;;;;1.48;0.60;;;19.30;99.90;;;;;;5883781;24;20051;-80
2021/08/17 14:20:16;;;;;;;0.90;0.70;;;19.30;99.90;;;;;;5865167;24;20032;-83
2021/08/17 14:23:05;;;;;;;1.27;0.55;;;19.30;99.90;;;;;;5862076;24;20025;-84
2021/08/17 14:25:49;;;;;;;0.77;0.50;;;19.30;99.90;;;;;;5871504;24;20032;-82
2021/08/17 14:28:25;;;;;;;0.98;0.50;;;19.20;99.90;;;;;;5923137;24;20032;-84
2021/08/17 14:31:22;;;;;;;0.95;0.50;;;19.10;99.90;;;;;;5947761;23;20043;-81
2021/08/17 14:34:15;;;;;;;1.20;0.60;;;19.00;99.90;;;;;;6014377;23;20023;-82
2021/08/17 14:37:09;;;;;;;;;;;;;;;;;;;;;
2021/08/17 14:39:45;;;;;;;1.38;0.57;;;19.00;99.90;;;;;;6086410;23;20104;-84
2021/08/17 14:42:51;;;;;;;1.02;0.60;;;19.00;99.90;;;;;;6056995;23;20327;-82
2021/08/17 14:45:31;;;;;;;;;;;;;;;;;;;;;
2021/08/17 14:48:31;;;;;;;1.83;0.88;;;19.10;99.90;;;;;;6193738;22;20019;-83
2021/08/17 14:51:26;;;;;;;3.28;0.70;;;19.10;99.90;;;;;;6212556;22;20015;-83
2021/08/17 14:54:09;;;;;;;3.10;0.90;;;19.10;99.90;;;;;;6249037;22;20016;-83
2021/08/17 14:56:45;;;;;;;2.80;0.77;;;19.10;99.90;;;;;;6181605;22;20766;-80
2021/08/17 14:59:22;;;;;;;;;;;19.00;99.90;;;;;;6245777;22;20030;-81
2021/08/17 15:01:53;;;;;;;1.90;0.60;;;18.90;99.90;;;;;;6259777;22;20197;-82
2021/08/17 15:04:30;;;;;;;1.95;0.70;;;18.90;99.90;;;;;;6262245;22;20023;-82
2021/08/17 15:06:57;;;;;;;1.98;0.95;;;18.90;99.90;;;;;;6262825;22;20088;-83
2021/08/17 15:09:29;;;;;;;4.22;0.80;;;19.00;99.90;;;;;;6278379;22;20030;-82
2021/08/17 15:12:08;;;;;;;2.88;0.70;;;19.00;99.90;;;;;;6280194;22;20090;-82
2021/08/17 15:14:38;;;;;;;4.05;0.80;;;19.00;99.90;;;;;;6261425;22;20407;-83
2021/08/17 15:17:08;;;;;;;2.38;0.73;;;18.90;99.90;;;;;;6262814;22;20019;-83
2021/08/17 15:19:35;;;;;;;3.20;0.80;;;19.00;99.90;;;;;;6247010;22;20102;-82
2021/08/17 15:25:09;;;;;;;2.17;0.65;;;19.00;99.90;;;;;;6291366;22;20011;-83
2021/08/17 15:27:42;;;;;;;1.52;0.60;;;18.90;99.90;;;;;;6250073;22;20024;-83
2021/08/17 15:30:34;;;;;;;1.67;0.52;;;18.90;99.90;;;;;;6241876;22;20134;-82
2021/08/17 15:33:23;;;;;;;2.70;0.90;;;18.90;99.90;;;;;;6252691;22;20379;-82
2021/08/17 15:36:01;;;;;;;3.15;0.93;;;18.90;99.90;;;;;;6263613;22;20012;-80
2021/08/17 15:38:35;;;;;;;3.05;1.08;;;18.80;99.90;;;;;;6245641;22;20027;-83
2021/08/17 15:41:10;;;;;;;2.63;0.80;;;18.60;99.90;;;;;;6263858;22;20021;-83
2021/08/17 15:43:58;;;;;;;6.70;0.73;;;18.60;99.90;;;;;;6249303;22;20023;-84
2021/08/17 15:46:51;;;;;;;5.20;0.80;;;18.60;99.90;;;;;;6247296;22;20030;-82
2021/08/17 15:49:31;;;;;;;2.58;0.63;;;18.50;99.90;;;;;;6246309;22;20019;-82
2021/08/17 15:52:08;;;;;;;1.45;0.45;;;18.50;99.90;;;;;;6279323;22;20432;-83
2021/08/17 15:54:44;;;;;;;3.72;0.70;;;18.40;99.90;;;;;;6226425;22;20444;-80
2021/08/17 15:57:16;;;;;;;2.83;0.65;;;18.50;99.90;;;;;;6245660;22;20102;-83
2021/08/17 16:00:18;;;;;;;;;;;;;;;;;;;;;
2021/08/17 16:03:01;;;;;;;2.97;0.88;;;18.70;99.90;;;;;;6284279;22;20331;-83
2021/08/17 16:05:47;;;;;;;1.92;0.82;;;18.80;99.90;;;;;;6263989;22;20049;-83
2021/08/17 16:08:35;;;;;;;3.53;0.95;;;18.80;99.90;;;;;;6277423;22;20434;-83
2021/08/17 16:11:05;;;;;;;3.50;0.80;;;18.60;99.90;;;;;;6261946;22;20070;-80
2021/08/17 16:13:38;;;;;;;2.75;0.93;;;18.60;99.90;;;;;;6211543;22;20027;-83
2021/08/17 16:16:08;;;;;;;2.25;0.85;;;18.60;99.90;;;;;;6253389;22;20022;-83
2021/08/17 16:18:48;;;;;;;3.65;0.75;;;18.40;99.90;;;;;;6281022;22;20076;-82
2021/08/17 16:21:21;;;;;;;1.85;0.80;;;18.30;99.90;;;;;;6249176;22;20019;-81
2021/08/17 16:23:52;;;;;;;4.53;0.80;;;18.20;99.90;;;;;;6278724;22;20030;-82
2021/08/17 16:26:19;;;;;;;6.53;1.30;;;18.20;99.90;;;;;;6264571;22;20060;-83
2021/08/17 16:28:47;;;;;;;2.90;0.88;;;18.30;99.90;;;;;;6265434;22;20023;-81
2021/08/17 16:31:28;;;;;;;2.28;0.60;;;18.30;99.90;;;;;;6246615;22;20015;-83
2021/08/17 16:34:01;;;;;;;1.73;0.60;;;18.30;99.90;;;;;;6264017;22;20015;-81
2021/08/17 16:36:33;;;;;;;1.95;0.47;;;18.20;99.90;;;;;;6278552;22;20367;-83
2021/08/17 16:42:13;;;;;;;2.83;0.52;;;18.20;99.90;;;;;;6303046;22;20019;-82
2021/08/17 16:44:46;;;;;;;2.47;0.77;;;18.20;99.90;;;;;;6262649;22;20023;-81
2021/08/17 16:47:25;;;;;;;;;;;;;;;;;;;;;
2021/08/17 16:49:53;;;;;;;2.53;0.40;;;18.30;99.90;;;;;;6305191;22;20015;-83
2021/08/17 16:52:23;;;;;;;3.58;0.45;;;18.20;99.90;;;;;;6251572;22;20089;-80
2021/08/17 16:54:52;;;;;;;2.95;0.65;;;18.20;99.90;;;;;;6262986;22;20024;-82
2021/08/17 16:57:23;;;;;;;;;;;18.10;99.90;;;;;;6262911;22;20372;-83
2021/08/17 16:59:54;;;;;;;3.47;0.60;;;18.00;99.90;;;;;;6266933;22;19915;-81
2021/08/17 17:02:22;;;;;;;2.08;0.50;;;18.00;99.90;;;;;;6263515;22;20019;-82
2021/08/17 17:04:54;;;;;;;2.58;0.60;;;17.90;99.90;;;;;;6279499;22;20065;-81
2021/08/17 17:07:21;;;;;;;1.92;0.50;;;17.90;99.90;;;;;;6266926;22;20019;-82
2021/08/17 17:09:48;;;;;;;3.42;0.50;;;17.90;99.90;;;;;;6278992;22;20324;-82
2021/08/17 17:12:15;;;;;;;2.92;0.70;;;17.80;99.90;;;;;;6277924;22;20090;-81
2021/08/17 17:14:45;;;;;;;1.40;0.55;;;17.80;99.90;;;;;;6278526;22;20023;-80
2021/08/17 17:17:15;;;;;;;4.38;0.60;;;17.80;99.90;;;;;;6277675;22;20038;-83
2021/08/17 17:19:42;;;;;;;3.78;0.70;;;17.80;99.90;;;;;;6278816;22;20377;-82
2021/08/17 17:22:12;;;;;;;3.33;0.65;;;17.80;99.90;;;;;;6263871;22;20029;-82
2021/08/17 17:24:39;;;;;;;2.78;0.70;;;17.60;99.90;;;;;;6261414;22;20038;-82
2021/08/17 17:27:10;;;;;;;3.78;0.90;;;17.50;99.90;;;;;;6263153;22;20064;-83
2021/08/17 17:29:41;;;;;;;6.15;0.80;;;17.50;99.90;;;;;;6279565;22;20027;-82
2021/08/17 17:32:11;;;;;;;2.33;0.63;;;17.50;99.90;;;;;;6277772;22;20082;-82
2021/08/17 17:34:38;;;;;;;2.38;0.80;;;17.50;99.90;;;;;;6267256;22;20042;-81
2021/08/17 17:37:05;;;;;;;4.47;0.90;;;17.50;99.90;;;;;;6272889;22;20030;-79
2021/08/17 17:39:32;;;;;;;7.40;1.15;;;17.40;99.90;;;;;;6278602;22;20034;-80
2021/08/17 17:41:59;;;;;;;2.28;0.80;;;17.30;99.90;;;;;;6268796;22;20358;-83
2021/08/17 17:44:28;;;;;;;4.60;0.73;;;17.30;99.90;;;;;;6278601;22;20034;-83
2021/08/17 17:46:57;;;;;;;2.03;0.80;;;17.20;99.90;;;;;;6266587;22;20016;-83
2021/08/17 17:49:24;;;;;;;3.38;0.95;;;17.20;99.90;;;;;;6279471;22;20090;-82
2021/08/17 17:51:55;;;;;;;4.57;0.90;;;17.20;99.90;;;;;;6252536;22;20452;-80
2021/08/17 17:54:24;;;;;;;4.82;0.88;;;17.10;99.90;;;;;;6264716;22;20511;-82
2021/08/17 17:56:53;;;;;;;3.53;1.00;;;17.10;99.90;;;;;;6265603;22;20023;-80
2021/08/17 17:59:26;;;;;;;5.32;1.00;;;17.10;99.90;;;;;;6263077;22;20018;-83
2021/08/17 18:01:55;;;;;;;3.25;0.90;;;17.00;99.90;;;;;;6279981;22;20019;-82
2021/08/17 18:04:26;;;;;;;2.05;0.70;;;17.00;99.90;;;;;;6279853;22;20098;-83
2021/08/17 18:07:45;;;;;;;2.67;1.10;;;17.00;99.90;;;;;;6267325;22;20344;-83
2021/08/17 18:10:44;;;;;;;;;;;;;;;;;;;;;
2021/08/17 18:13:26;;;;;;;;;;;;;;;;;;;;;
2021/08/17 18:16:24;;;;;;;4.32;0.82;;;17.00;99.90;;;;;;6063387;23;20022;-83
2021/08/17 18:19:05;;;;;;;5.80;1.15;;;17.00;99.90;;;;;;6112728;23;20072;-83
2021/08/17 18:21:44;;;;;;;3.33;0.73;;;17.00;99.90;;;;;;6128462;23;20137;-80
2021/08/17 18:24:13;;;;;;;3.58;0.95;;;17.00;99.90;;;;;;6113702;23;20025;-81
2021/08/17 18:26:45;;;;;;;5.05;0.93;;;16.90;99.90;;;;;;6114682;23;20021;-82
2021/08/17 18:29:13;;;;;;;4.95;0.80;;;16.90;99.90;;;;;;6127157;23;20017;-81
2021/08/17 18:31:41;;;;;;;6.05;2.40;;;16.80;99.90;;;;;;6115246;23;20029;-83
2021/08/17 18:34:11;;;;;;;6.10;1.17;;;16.80;99.90;;;;;;6147393;23;20067;-82
2021/08/17 18:36:38;;;;;;;3.42;1.20;;;16.70;99.90;;;;;;6187052;23;20021;-83
2021/08/17 18:39:07;;;;;;;3.38;0.95;;;16.70;99.90;;;;;;6174716;23;20029;-82
2021/08/17 18:41:37;;;;;;;4.68;1.23;;;16.60;99.90;;;;;;6224536;22;20090;-82